createdAt,value
2023-09-06T00:04:49.672Z,101438.20
2023-09-06T00:09:54.855Z,101440.20
2023-09-06T00:14:58.882Z,101439.40
2023-09-06T00:20:02.156Z,101450.00
2023-09-06T00:25:09.343Z,101448.40
2023-09-06T00:30:21.963Z,101446.00
2023-09-06T00:35:27.899Z,101444.60
2023-09-06T00:40:31.205Z,101441.00
2023-09-06T00:45:51.985Z,101446.60
2023-09-06T00:50:57.824Z,101447.20
2023-09-06T00:56:04.732Z,101446.20
2023-09-06T01:01:07.676Z,101449.80
2023-09-06T01:06:21.970Z,101447.60
2023-09-06T01:11:28.894Z,101437.20
2023-09-06T01:16:43.274Z,101438.00
2023-09-06T01:22:01.965Z,101442.80
2023-09-06T01:27:07.212Z,101436.00
2023-09-06T01:32:12.122Z,101424.20
2023-09-06T01:37:15.018Z,101429.80
2023-09-06T01:42:23.716Z,101427.00
2023-09-06T01:47:31.173Z,101427.00
2023-09-06T01:52:39.340Z,101423.00
2023-09-06T01:57:42.251Z,101423.80
2023-09-06T02:02:53.490Z,101424.00
2023-09-06T02:07:56.515Z,101421.00
2023-09-06T02:13:00.755Z,101424.40
2023-09-06T02:18:04.007Z,101430.00
2023-09-06T02:23:09.432Z,101426.80
2023-09-06T02:28:12.225Z,101427.00
2023-09-06T02:33:19.990Z,101429.80
2023-09-06T02:38:24.770Z,101427.20
2023-09-06T02:43:27.515Z,101426.80
2023-09-06T02:48:35.958Z,101433.60
2023-09-06T02:53:45.242Z,101435.40
2023-09-06T02:58:48.933Z,101426.40
2023-09-06T03:03:52.833Z,101430.20
2023-09-06T03:09:00.679Z,101424.20
2023-09-06T03:14:05.803Z,101421.60
2023-09-06T03:19:11.424Z,101425.60
2023-09-06T03:24:14.984Z,101421.20
2023-09-06T03:29:18.972Z,101421.40
2023-09-06T03:34:23.191Z,101417.20
2023-09-06T03:39:31.955Z,101420.80
2023-09-06T03:44:41.381Z,101425.00
2023-09-06T03:49:46.277Z,101424.00
2023-09-06T03:54:51.872Z,101426.20
2023-09-06T04:00:26.118Z,101421.80
2023-09-06T04:05:35.866Z,101422.00
2023-09-06T04:10:41.600Z,101419.40
2023-09-06T04:15:46.323Z,101417.40
2023-09-06T04:21:01.258Z,101420.80
2023-09-06T04:26:12.230Z,101408.80
2023-09-06T04:31:15.003Z,101408.40
2023-09-06T04:36:20.212Z,101404.80
2023-09-06T04:41:25.409Z,101403.80
2023-09-06T04:46:28.416Z,101400.40
2023-09-06T04:51:32.667Z,101404.00
2023-09-06T04:56:40.799Z,101403.80
2023-09-06T05:01:43.852Z,101402.20
2023-09-06T05:06:48.871Z,101399.00
2023-09-06T05:11:52.040Z,101406.80
2023-09-06T05:16:58.534Z,101402.00
2023-09-06T05:22:05.028Z,101400.60
2023-09-06T05:27:09.069Z,101404.40
2023-09-06T05:38:06.699Z,101404.40
2023-09-06T05:43:09.661Z,101406.40
2023-09-06T05:48:15.045Z,101408.40
2023-09-06T05:53:17.736Z,101408.60
2023-09-06T05:58:22.738Z,101406.80
2023-09-06T06:03:40.263Z,101410.20
2023-09-06T06:08:46.426Z,101413.40
2023-09-06T06:14:00.335Z,101419.00
2023-09-06T06:19:15.945Z,101421.60
2023-09-06T06:24:19.933Z,101423.00
2023-09-06T06:29:25.474Z,101434.80
2023-09-06T06:34:30.601Z,101437.00
2023-09-06T06:39:41.409Z,101439.60
2023-09-06T06:44:49.226Z,101440.00
2023-09-06T06:49:56.173Z,101437.00
2023-09-06T06:54:59.193Z,101441.00
2023-09-06T07:00:09.290Z,101445.00
2023-09-06T07:05:13.754Z,101449.00
2023-09-06T07:10:19.096Z,101445.80
2023-09-06T07:15:22.054Z,101446.20
2023-09-06T07:20:27.794Z,101451.00
2023-09-06T07:25:34.977Z,101453.60
2023-09-06T07:30:37.804Z,101452.40
2023-09-06T07:35:43.318Z,101458.80
2023-09-06T07:40:46.083Z,101467.00
2023-09-06T07:45:48.983Z,101472.60
2023-09-06T08:08:59.729Z,101473.20
2023-09-06T08:14:07.156Z,101480.00
2023-09-06T08:19:15.376Z,101478.00
2023-09-06T08:24:23.740Z,101482.00
2023-09-06T08:29:30.118Z,101483.40
2023-09-06T08:34:35.366Z,101485.80
2023-09-06T08:39:40.764Z,101493.20
2023-09-06T08:44:49.824Z,101493.20
2023-09-06T08:49:58.028Z,101490.80
2023-09-06T08:55:00.971Z,101494.80
2023-09-06T09:00:16.657Z,101496.20
2023-09-06T09:05:23.387Z,101497.40
2023-09-06T09:10:32.956Z,101498.20
2023-09-06T09:15:37.163Z,101500.80
2023-09-06T09:20:47.793Z,101506.40
2023-09-06T09:25:53.326Z,101501.40
2023-09-06T09:30:59.955Z,101501.20
2023-09-06T09:36:07.793Z,101506.00
2023-09-06T09:41:12.303Z,101509.40
2023-09-06T09:46:29.067Z,101511.20
2023-09-06T09:51:35.485Z,101508.40
2023-09-06T09:56:43.332Z,101514.20
2023-09-06T10:01:46.431Z,101511.40
2023-09-06T10:06:52.632Z,101519.80
2023-09-06T10:12:00.952Z,101517.20
2023-09-06T10:17:05.970Z,101517.20
2023-09-06T10:22:16.529Z,101518.00
2023-09-06T10:27:33.559Z,101516.60
2023-09-06T10:32:47.299Z,101524.80
2023-09-06T10:38:19.589Z,101529.60
2023-09-06T10:43:29.299Z,101530.80
2023-09-06T10:48:34.222Z,101530.80
2023-09-06T10:54:08.304Z,101526.00
2023-09-06T10:59:22.733Z,101527.00
2023-09-06T11:04:28.864Z,101523.20
2023-09-06T11:09:31.770Z,101525.20
2023-09-06T11:14:35.054Z,101522.60
2023-09-06T11:19:41.192Z,101524.40
2023-09-06T11:24:45.614Z,101528.80
2023-09-06T11:30:08.214Z,101527.40
2023-09-06T11:35:12.315Z,101527.60
2023-09-06T11:40:16.630Z,101529.40
2023-09-06T11:45:25.943Z,101522.40
2023-09-06T11:55:33.611Z,101524.20
2023-09-06T12:00:49.461Z,101515.60
2023-09-06T12:05:54.827Z,101510.20
2023-09-06T12:11:11.609Z,101509.60
2023-09-06T12:16:16.821Z,101512.40
2023-09-06T12:21:22.858Z,101516.20
2023-09-06T12:26:26.405Z,101508.80
2023-09-06T12:31:29.961Z,101509.20
2023-09-06T12:36:33.276Z,101506.60
2023-09-06T12:41:40.684Z,101512.00
2023-09-06T12:46:43.596Z,101515.60
2023-09-06T12:51:49.285Z,101509.40
2023-09-06T12:56:56.323Z,101502.40
2023-09-06T13:01:59.114Z,101495.00
2023-09-06T13:07:04.926Z,101502.00
2023-09-06T13:12:10.784Z,101499.80
2023-09-06T13:17:17.116Z,101498.20
2023-09-06T13:22:20.216Z,101497.00
2023-09-06T13:27:23.089Z,101499.40
2023-09-06T13:32:32.135Z,101497.60
2023-09-06T13:37:34.861Z,101501.00
2023-09-06T13:42:38.007Z,101501.00
2023-09-06T13:47:44.622Z,101501.80
2023-09-06T13:52:48.980Z,101497.60
2023-09-06T13:57:54.462Z,101506.40
2023-09-06T14:02:57.480Z,101496.00
2023-09-06T14:08:06.097Z,101499.80
2023-09-06T14:13:08.840Z,101496.00
2023-09-06T14:18:16.352Z,101496.00
2023-09-06T14:23:23.604Z,101490.20
2023-09-06T14:28:26.459Z,101491.00
2023-09-06T14:33:38.250Z,101489.40
2023-09-06T14:38:41.165Z,101497.60
2023-09-06T14:43:45.264Z,101500.40
2023-09-06T14:48:48.137Z,101510.80
2023-09-06T14:53:57.202Z,101507.20
2023-09-06T14:59:02.650Z,101508.80
2023-09-06T15:04:07.219Z,101513.20
2023-09-06T15:09:10.264Z,101513.00
2023-09-06T15:14:13.532Z,101508.20
2023-09-06T15:19:16.468Z,101513.00
2023-09-06T15:24:19.863Z,101510.40
2023-09-06T15:29:22.706Z,101515.60
2023-09-06T15:34:28.171Z,101510.60
2023-09-06T15:39:31.415Z,101507.00
2023-09-06T15:44:36.421Z,101508.40
2023-09-06T15:49:39.314Z,101517.20
2023-09-06T15:54:45.333Z,101522.00
2023-09-06T15:59:53.541Z,101518.00
2023-09-06T16:04:56.891Z,101521.00
2023-09-06T16:10:01.609Z,101521.60
2023-09-06T16:15:05.847Z,101523.40
2023-09-06T16:20:11.572Z,101517.20
2023-09-06T16:25:14.454Z,101519.40
2023-09-06T16:30:23.336Z,101521.20
2023-09-06T16:35:34.057Z,101524.80
2023-09-06T16:40:43.052Z,101529.80
2023-09-06T16:45:45.898Z,101532.00
2023-09-06T16:50:51.169Z,101537.60
2023-09-06T16:55:56.330Z,101542.60
2023-09-06T17:01:01.193Z,101541.60
2023-09-06T17:06:04.257Z,101544.40
2023-09-06T17:11:19.707Z,101545.60
2023-09-06T17:16:24.876Z,101550.40
2023-09-06T17:21:32.467Z,101547.60
2023-09-06T17:26:42.819Z,101545.80
2023-09-06T17:31:49.850Z,101558.00
2023-09-06T17:36:56.561Z,101564.20
2023-09-06T17:42:02.037Z,101566.60
2023-09-06T17:47:08.158Z,101572.20
2023-09-06T17:52:12.118Z,101584.00
2023-09-06T17:57:17.489Z,101596.40
2023-09-06T18:02:21.080Z,101606.00
2023-09-06T18:07:23.933Z,101616.40
2023-09-06T18:12:29.522Z,101619.80
2023-09-06T18:17:32.419Z,101622.20
2023-09-06T18:22:38.026Z,101628.20
2023-09-06T18:27:41.620Z,101632.40
2023-09-06T18:32:46.888Z,101636.20
2023-09-06T18:37:50.717Z,101645.00
2023-09-06T18:42:53.615Z,101650.40
2023-09-06T18:48:01.067Z,101652.40
2023-09-06T18:53:09.334Z,101657.40
2023-09-06T18:58:14.842Z,101662.20
2023-09-06T19:03:21.419Z,101659.00
2023-09-06T19:08:24.469Z,101659.60
2023-09-06T19:13:28.574Z,101659.00
2023-09-06T19:18:34.140Z,101657.00
2023-09-06T19:23:37.428Z,101651.20
2023-09-06T19:28:44.032Z,101651.40
2023-09-06T19:33:51.671Z,101659.20
2023-09-06T19:38:54.547Z,101659.20
2023-09-06T19:43:59.223Z,101661.60
2023-09-06T19:49:09.712Z,101669.40
2023-09-06T19:54:15.103Z,101673.40
2023-09-06T19:59:19.769Z,101681.00
2023-09-06T20:04:22.974Z,101682.60
2023-09-06T20:09:30.536Z,101683.60
2023-09-06T20:14:35.888Z,101690.20
2023-09-06T20:19:39.968Z,101688.80
2023-09-06T20:24:43.951Z,101690.80
2023-09-06T20:29:48.470Z,101697.40
2023-09-06T20:34:51.654Z,101694.40
2023-09-06T20:39:59.729Z,101694.60
2023-09-06T20:45:02.644Z,101695.40
2023-09-06T20:50:15.816Z,101698.20
2023-09-06T20:55:18.847Z,101701.20
2023-09-06T21:00:28.787Z,101706.40
2023-09-06T21:05:33.080Z,101708.80
2023-09-06T21:10:36.677Z,101713.80
2023-09-06T21:15:39.474Z,101718.60
2023-09-06T21:20:42.768Z,101728.60
2023-09-06T21:25:45.600Z,101730.80
2023-09-06T21:30:52.400Z,101738.80
2023-09-06T21:35:58.289Z,101737.00
2023-09-06T21:41:02.458Z,101730.80
2023-09-06T21:46:06.574Z,101731.60
2023-09-06T21:51:14.769Z,101732.80
2023-09-06T21:56:17.750Z,101733.40
2023-09-06T22:01:23.021Z,101735.20
2023-09-06T22:06:31.460Z,101738.40
2023-09-06T22:11:38.842Z,101741.40
2023-09-06T22:16:46.612Z,101741.00
2023-09-06T22:21:52.699Z,101740.60
2023-09-06T22:26:55.417Z,101747.80
2023-09-06T22:32:01.885Z,101745.80
2023-09-06T22:37:06.546Z,101749.20
2023-09-06T22:42:12.682Z,101750.80
2023-09-06T22:47:15.555Z,101753.00
2023-09-06T22:52:18.895Z,101749.80
2023-09-06T22:57:21.950Z,101751.60
2023-09-06T23:02:53.880Z,101745.80
2023-09-06T23:07:56.856Z,101747.20
2023-09-06T23:13:02.199Z,101747.00
2023-09-06T23:18:11.062Z,101752.80
2023-09-06T23:23:18.098Z,101752.80
2023-09-06T23:28:27.588Z,101753.20
2023-09-06T23:33:42.643Z,101756.00
2023-09-06T23:38:46.722Z,101755.20
2023-09-06T23:43:52.793Z,101754.40
2023-09-06T23:48:57.683Z,101758.00
2023-09-06T23:54:00.482Z,101763.00
2023-09-06T23:59:05.202Z,101769.20
